Smartt, Tennessee
Current Conditions -  °F | °C
As of 2:35 PM on Tuesday 25 Nov 2014 (Local Time) from KRNC Reporting Station
Clear Clear  
Wind Chill: 50°   Ceiling: Unl
Heat Index: 50°   Visibility: 10mi
Dew Point: 30°   Wind: 0mph
Humidity: 47%   Direction: NA
Pressure: 30.09"   Gusts: NA
Location:  35.64°N, 85.84°W
Report Text: KRNC 252035Z AUTO 00000KT 10SM CLR 10/M01 A3009 RMK
Loading
Personal Weather Stations






























Interactive Weather Map New forecast layout! Learn more

10-Day Weather Forecast

Advertisements
Track Severe Weather on mobile